Time;durP1;ratioP1;P1;durP2;ratioP2;P2;SDS_P1;SDS_P2;PMS_P1;PMS_P2;Temp;Humidity;BMP_temperature;BMP_pressure;BME280_temperature;BME280_humidity;BME280_pressure;Samples;Min_cycle;Max_cycle;Signal;HPM_P1;HPM_P2
2022/10/20 00:01:18;;;;;;;9.25;5.10;;;7.50;99.90;;;;;;5095218;28;20048;-62
2022/10/20 00:03:46;;;;;;;10.40;4.97;;;7.50;99.90;;;;;;5113753;28;20052;-61
2022/10/20 00:06:15;;;;;;;8.43;5.70;;;7.40;99.90;;;;;;5095686;28;20040;-62
2022/10/20 00:08:45;;;;;;;13.68;5.60;;;7.50;99.90;;;;;;5114810;27;20066;-63
2022/10/20 00:11:14;;;;;;;11.73;5.25;;;7.40;99.90;;;;;;5134643;27;20051;-62
2022/10/20 00:13:42;;;;;;;15.05;5.35;;;7.40;99.90;;;;;;5133878;27;20051;-61
2022/10/20 00:16:11;;;;;;;11.07;5.55;;;7.40;99.90;;;;;;5133668;27;20050;-63
2022/10/20 00:18:39;;;;;;;8.40;6.03;;;7.40;99.90;;;;;;5116306;27;20063;-62
2022/10/20 00:21:07;;;;;;;10.00;4.93;;;7.40;99.90;;;;;;5116381;27;20100;-62
2022/10/20 00:23:34;;;;;;;9.90;6.05;;;7.30;99.90;;;;;;5132712;27;20048;-63
2022/10/20 00:26:02;;;;;;;9.18;5.50;;;7.30;99.90;;;;;;5115450;27;20488;-62
2022/10/20 00:28:29;;;;;;;10.13;5.10;;;7.20;99.90;;;;;;5115733;27;20050;-61
2022/10/20 00:30:56;;;;;;;10.05;5.25;;;7.20;99.90;;;;;;5133651;27;20050;-63
2022/10/20 00:33:25;;;;;;;9.05;5.25;;;7.20;99.90;;;;;;5116000;27;20062;-61
2022/10/20 00:35:52;;;;;;;9.30;5.05;;;7.20;99.90;;;;;;5115033;27;20092;-61
2022/10/20 00:38:19;;;;;;;9.43;5.22;;;7.20;99.90;;;;;;5115329;27;20055;-61
2022/10/20 00:40:46;;;;;;;10.25;5.55;;;7.20;99.90;;;;;;5115078;27;20054;-62
2022/10/20 00:43:14;;;;;;;8.45;5.63;;;7.10;99.90;;;;;;5133579;27;20055;-61
2022/10/20 00:45:43;;;;;;;10.80;5.90;;;7.10;99.90;;;;;;5097795;28;20434;-63
2022/10/20 00:48:14;;;;;;;10.05;5.20;;;7.10;99.90;;;;;;5095448;28;20109;-62
2022/10/20 00:50:50;;;;;;;9.50;4.70;;;7.10;99.90;;;;;;5094526;28;20051;-63
2022/10/20 00:53:18;;;;;;;10.80;5.35;;;7.00;99.90;;;;;;5095532;28;20441;-61
2022/10/20 00:55:47;;;;;;;11.50;4.72;;;7.00;99.90;;;;;;5112996;28;20055;-60
2022/10/20 00:58:14;;;;;;;10.02;5.35;;;7.00;99.90;;;;;;5094495;28;20052;-62
2022/10/20 01:00:44;;;;;;;14.90;4.90;;;7.00;99.90;;;;;;5113373;28;20055;-61
2022/10/20 01:03:16;;;;;;;7.30;5.43;;;7.00;99.90;;;;;;5112209;28;20052;-62
2022/10/20 01:05:44;;;;;;;7.40;5.18;;;6.90;99.90;;;;;;5110918;28;20101;-62
2022/10/20 01:08:11;;;;;;;9.23;5.10;;;7.00;99.90;;;;;;5112102;28;20051;-62
2022/10/20 01:10:46;;;;;;;12.07;5.35;;;7.00;99.90;;;;;;5111840;28;20403;-64
2022/10/20 01:13:19;;;;;;;12.57;5.30;;;6.90;99.90;;;;;;5112832;28;20537;-61
2022/10/20 01:15:57;;;;;;;11.10;5.28;;;6.90;99.90;;;;;;5111601;28;20043;-62
2022/10/20 01:18:31;;;;;;;16.80;6.05;;;6.90;99.90;;;;;;5112809;28;20051;-61
2022/10/20 01:21:27;;;;;;;9.85;5.20;;;6.90;99.90;;;;;;5112668;28;20108;-62
2022/10/20 01:24:17;;;;;;;9.18;4.88;;;6.90;99.90;;;;;;5112116;28;20179;-62
2022/10/20 01:27:26;;;;;;;7.00;4.78;;;6.90;99.90;;;;;;5114974;28;20433;-63
2022/10/20 01:30:00;;;;;;;8.77;5.28;;;6.90;99.90;;;;;;5115661;27;20105;-61
2022/10/20 01:32:36;;;;;;;9.93;6.18;;;6.90;99.90;;;;;;5115664;28;20509;-62
2022/10/20 01:35:10;;;;;;;12.95;5.65;;;6.90;99.90;;;;;;5116007;28;20048;-62
2022/10/20 01:37:42;;;;;;;7.13;4.78;;;6.90;99.90;;;;;;5116007;28;20403;-63
2022/10/20 01:40:14;;;;;;;11.32;5.60;;;6.80;99.90;;;;;;5114801;28;20108;-63
2022/10/20 01:42:45;;;;;;;10.30;4.65;;;6.80;99.90;;;;;;5115498;28;20063;-63
2022/10/20 01:45:13;;;;;;;;;;;6.80;99.90;;;;;;5116982;27;20051;-61
2022/10/20 01:47:42;;;;;;;10.30;4.82;;;6.80;99.90;;;;;;5114907;28;20363;-62
2022/10/20 01:50:10;;;;;;;12.10;5.28;;;6.80;99.90;;;;;;5115646;28;20055;-63
2022/10/20 01:52:37;;;;;;;9.55;4.60;;;6.70;99.90;;;;;;5099922;28;20398;-62
2022/10/20 01:55:12;;;;;;;11.77;5.72;;;6.70;99.90;;;;;;5115752;28;20052;-62
2022/10/20 01:57:57;;;;;;;9.38;5.20;;;6.70;99.90;;;;;;5098567;28;20470;-63
2022/10/20 02:00:24;;;;;;;11.52;5.22;;;6.70;99.90;;;;;;5098983;28;20059;-63
2022/10/20 02:03:04;;;;;;;11.88;6.30;;;6.70;99.90;;;;;;5116166;28;20437;-62
2022/10/20 02:05:45;;;;;;;9.73;5.22;;;6.70;99.90;;;;;;5116651;28;20055;-63
2022/10/20 02:08:16;;;;;;;9.50;5.78;;;6.70;99.90;;;;;;5097503;28;20066;-62
2022/10/20 02:10:47;;;;;;;9.77;5.45;;;6.60;99.90;;;;;;5098285;28;20048;-62
2022/10/20 02:13:18;;;;;;;9.73;5.55;;;6.60;99.90;;;;;;5098404;28;20052;-63
2022/10/20 02:15:46;;;;;;;;;;;6.70;99.90;;;;;;5112235;27;20096;-62
2022/10/20 02:18:17;;;;;;;11.10;5.50;;;6.70;99.90;;;;;;5115008;28;19927;-62
2022/10/20 02:20:48;;;;;;;8.27;5.50;;;6.70;99.90;;;;;;5114807;28;20052;-62
2022/10/20 02:23:16;;;;;;;9.68;5.25;;;6.60;99.90;;;;;;5114634;28;20443;-62
2022/10/20 02:25:43;;;;;;;8.40;5.00;;;6.60;99.90;;;;;;5115864;28;20048;-63
2022/10/20 02:28:13;;;;;;;10.18;5.20;;;6.50;99.90;;;;;;5114730;28;20059;-62
2022/10/20 02:30:42;;;;;;;9.30;4.72;;;6.50;99.90;;;;;;5103312;28;20043;-62
2022/10/20 02:33:10;;;;;;;9.38;5.43;;;6.60;99.90;;;;;;5097672;28;20100;-62
2022/10/20 02:35:37;;;;;;;11.95;5.35;;;6.50;99.90;;;;;;5097281;28;20413;-61
2022/10/20 02:38:04;;;;;;;11.90;5.75;;;6.50;99.90;;;;;;5113956;28;20102;-62
2022/10/20 02:40:31;;;;;;;9.07;5.93;;;6.50;99.90;;;;;;5114326;28;20159;-62
2022/10/20 02:42:58;;;;;;;8.57;5.63;;;6.50;99.90;;;;;;5115274;28;20101;-61
2022/10/20 02:45:25;;;;;;;10.68;5.32;;;6.50;99.90;;;;;;5115018;28;20043;-61
2022/10/20 02:47:53;;;;;;;13.80;6.32;;;6.50;99.90;;;;;;5115677;28;20043;-61
2022/10/20 02:50:20;;;;;;;11.32;5.70;;;6.40;99.90;;;;;;5114712;28;20380;-61
2022/10/20 02:52:47;;;;;;;11.07;6.72;;;6.40;99.90;;;;;;5099077;28;20555;-62
2022/10/20 02:55:14;;;;;;;10.35;5.60;;;6.40;99.90;;;;;;5097164;28;20051;-60
2022/10/20 02:57:40;;;;;;;11.10;6.47;;;6.40;99.90;;;;;;5114674;28;20123;-61
2022/10/20 03:00:09;;;;;;;20.48;7.25;;;6.40;99.90;;;;;;5097223;28;20051;-63
2022/10/20 03:02:35;;;;;;;8.05;6.05;;;6.40;99.90;;;;;;5115179;28;20101;-61
2022/10/20 03:05:04;;;;;;;9.55;6.53;;;6.40;99.90;;;;;;5096346;28;20483;-62
2022/10/20 03:07:31;;;;;;;12.60;5.82;;;6.40;99.90;;;;;;5095849;28;20093;-62
2022/10/20 03:09:58;;;;;;;9.07;5.95;;;6.40;99.90;;;;;;5096838;28;20056;-62
2022/10/20 03:12:25;;;;;;;14.30;6.50;;;6.40;99.90;;;;;;5114432;28;20051;-63
2022/10/20 03:14:51;;;;;;;17.38;6.25;;;6.40;99.90;;;;;;5115213;28;20093;-62
2022/10/20 03:17:18;;;;;;;12.48;6.68;;;6.40;99.90;;;;;;5096225;28;20048;-62
2022/10/20 03:19:45;;;;;;;9.95;6.13;;;6.30;99.90;;;;;;5096366;28;20055;-62
2022/10/20 03:22:13;;;;;;;11.93;5.85;;;6.30;99.90;;;;;;5115070;28;20104;-63
2022/10/20 03:24:40;;;;;;;10.40;6.10;;;6.30;99.90;;;;;;5114742;28;20563;-62
2022/10/20 03:27:07;;;;;;;11.43;7.18;;;6.30;99.90;;;;;;5112932;28;20040;-61
2022/10/20 03:29:34;;;;;;;10.35;6.63;;;6.30;99.90;;;;;;5114972;28;20070;-62
2022/10/20 03:32:01;;;;;;;13.10;6.45;;;6.30;99.90;;;;;;5114198;28;20124;-63
2022/10/20 03:34:28;;;;;;;11.55;6.22;;;6.30;99.90;;;;;;5112627;28;20097;-62
2022/10/20 03:36:55;;;;;;;9.35;6.10;;;6.60;99.90;;;;;;5112663;27;20058;-63
2022/10/20 03:39:23;;;;;;;12.52;7.20;;;6.50;99.90;;;;;;5111707;28;20048;-62
2022/10/20 03:41:50;;;;;;;11.30;6.50;;;6.40;99.90;;;;;;5101306;28;20531;-62
2022/10/20 03:44:17;;;;;;;13.23;7.13;;;6.30;99.90;;;;;;5094933;28;20048;-63
2022/10/20 03:46:44;;;;;;;14.93;6.82;;;6.30;99.90;;;;;;5093282;28;20044;-61
2022/10/20 03:49:11;;;;;;;11.80;7.38;;;6.30;99.90;;;;;;5094973;28;20054;-62
2022/10/20 03:51:37;;;;;;;14.30;7.22;;;6.30;99.90;;;;;;5094853;28;20055;-62
2022/10/20 03:54:04;;;;;;;13.43;7.63;;;6.20;99.90;;;;;;5093235;28;20058;-63
2022/10/20 03:56:33;;;;;;;15.02;6.63;;;6.20;99.90;;;;;;5093774;28;20108;-63
2022/10/20 03:59:00;;;;;;;13.18;7.22;;;6.20;99.90;;;;;;5115208;27;20059;-61
2022/10/20 04:01:30;;;;;;;11.57;7.38;;;6.30;99.90;;;;;;5093058;28;20044;-62
2022/10/20 04:03:57;;;;;;;10.65;7.03;;;6.20;99.90;;;;;;5094719;28;20039;-63
2022/10/20 04:06:24;;;;;;;12.27;6.93;;;6.20;99.90;;;;;;5093442;28;20112;-62
2022/10/20 04:08:51;;;;;;;11.05;6.90;;;6.20;99.90;;;;;;5111605;28;20047;-62
2022/10/20 04:11:18;;;;;;;11.23;7.68;;;6.20;99.90;;;;;;5112688;28;20051;-62
2022/10/20 04:13:46;;;;;;;12.52;6.80;;;6.20;99.90;;;;;;5111630;27;20514;-63
2022/10/20 04:16:13;;;;;;;14.25;8.13;;;6.40;99.90;;;;;;5110970;28;20044;-63
2022/10/20 04:18:40;;;;;;;11.35;6.53;;;7.30;99.90;;;;;;5095877;27;20512;-63
2022/10/20 04:21:07;;;;;;;12.88;6.93;;;7.30;99.90;;;;;;5112200;28;20495;-62
2022/10/20 04:23:34;;;;;;;13.18;7.28;;;7.50;99.90;;;;;;5111216;27;20167;-62
2022/10/20 04:26:07;;;;;;;11.50;7.63;;;7.90;99.90;;;;;;5093229;28;20047;-63
2022/10/20 04:28:33;;;;;;;12.52;6.93;;;7.70;99.90;;;;;;5111346;28;20052;-62
2022/10/20 04:31:02;;;;;;;10.80;7.90;;;7.80;99.90;;;;;;5098486;28;20051;-62
2022/10/20 04:33:29;;;;;;;12.45;7.65;;;7.60;99.90;;;;;;5093589;28;20047;-61
2022/10/20 04:35:59;;;;;;;10.68;7.47;;;7.90;99.90;;;;;;5111104;28;20048;-62
2022/10/20 04:38:26;;;;;;;15.75;7.90;;;8.70;99.90;;;;;;5095530;28;20139;-62
2022/10/20 04:40:56;;;;;;;10.65;8.02;;;8.00;99.90;;;;;;5099822;28;20058;-62
2022/10/20 04:43:23;;;;;;;13.70;7.53;;;7.50;99.90;;;;;;5113723;27;20391;-62
2022/10/20 04:45:50;;;;;;;11.15;7.63;;;7.20;99.90;;;;;;5110387;28;20117;-63
2022/10/20 04:48:18;;;;;;;13.50;7.68;;;6.90;99.90;;;;;;5111999;28;20054;-62
2022/10/20 04:50:45;;;;;;;12.15;8.30;;;6.80;99.90;;;;;;5110919;28;20051;-62
2022/10/20 04:53:12;;;;;;;13.82;8.00;;;6.60;99.90;;;;;;5098786;28;20047;-62
2022/10/20 04:55:38;;;;;;;14.73;8.15;;;6.50;99.90;;;;;;5124241;27;20507;-62
2022/10/20 04:58:05;;;;;;;13.77;8.10;;;6.40;99.90;;;;;;5112361;28;20403;-62
2022/10/20 05:00:32;;;;;;;11.63;8.70;;;6.30;99.90;;;;;;5107727;28;20414;-60
2022/10/20 05:02:59;;;;;;;15.23;8.48;;;6.30;99.90;;;;;;5096605;28;20054;-62
2022/10/20 05:05:27;;;;;;;12.77;8.27;;;6.20;99.90;;;;;;5102723;28;20449;-63
2022/10/20 05:07:54;;;;;;;15.35;9.25;;;6.30;99.90;;;;;;5116915;28;20544;-61
2022/10/20 05:10:21;;;;;;;16.58;9.30;;;6.20;99.90;;;;;;5096131;28;20051;-62
2022/10/20 05:12:48;;;;;;;17.05;9.40;;;6.20;99.90;;;;;;5093701;28;20051;-62
2022/10/20 05:15:15;;;;;;;13.65;8.77;;;6.20;99.90;;;;;;5111266;28;20100;-62
2022/10/20 05:17:41;;;;;;;15.30;9.02;;;6.20;99.90;;;;;;5093404;28;20052;-61
2022/10/20 05:20:09;;;;;;;16.67;10.10;;;6.20;99.90;;;;;;5115874;28;20043;-62
2022/10/20 05:22:37;;;;;;;13.82;8.48;;;6.10;99.90;;;;;;5107383;28;20058;-61
2022/10/20 05:25:05;;;;;;;14.82;8.65;;;6.10;99.90;;;;;;5125445;28;20070;-62
2022/10/20 05:27:32;;;;;;;13.63;8.82;;;6.10;99.90;;;;;;5111512;28;20571;-62
2022/10/20 05:30:01;;;;;;;14.23;9.32;;;6.10;99.90;;;;;;5112433;28;20418;-61
2022/10/20 05:32:28;;;;;;;15.90;9.40;;;6.10;99.90;;;;;;5092418;28;20051;-61
2022/10/20 05:34:55;;;;;;;15.38;10.07;;;6.10;99.90;;;;;;5093103;28;20063;-61
2022/10/20 05:37:22;;;;;;;17.23;9.50;;;6.10;99.90;;;;;;5093570;28;20044;-64
2022/10/20 05:39:50;;;;;;;13.15;8.65;;;6.10;99.90;;;;;;5091785;28;20100;-62
2022/10/20 05:42:17;;;;;;;20.88;11.25;;;6.10;99.90;;;;;;5112908;28;20051;-61
2022/10/20 05:44:44;;;;;;;16.25;9.95;;;6.00;99.90;;;;;;5112278;28;20051;-62
2022/10/20 05:47:11;;;;;;;19.23;10.55;;;6.00;99.90;;;;;;5092382;28;20048;-62
2022/10/20 05:49:37;;;;;;;15.55;11.10;;;6.00;99.90;;;;;;5111630;28;20125;-63
2022/10/20 05:52:04;;;;;;;16.40;9.90;;;6.00;99.90;;;;;;5098444;28;20455;-62
2022/10/20 05:54:31;;;;;;;12.80;9.32;;;6.00;99.90;;;;;;5092908;28;20059;-62
2022/10/20 05:57:00;;;;;;;17.05;10.48;;;5.90;99.90;;;;;;5112220;28;20042;-62
2022/10/20 05:59:27;;;;;;;18.30;10.43;;;5.90;99.90;;;;;;5110359;28;20051;-62
2022/10/20 06:01:53;;;;;;;16.85;10.32;;;6.00;99.90;;;;;;5110012;28;20054;-63
2022/10/20 06:04:23;;;;;;;17.27;10.55;;;6.00;99.90;;;;;;5110768;28;20047;-62
2022/10/20 06:07:30;;;;;;;16.52;10.23;;;5.90;99.90;;;;;;5111058;28;20126;-62
2022/10/20 06:09:57;;;;;;;17.67;10.93;;;6.00;99.90;;;;;;5121936;28;20383;-62
2022/10/20 06:12:25;;;;;;;15.52;10.20;;;6.00;99.90;;;;;;5110558;27;20558;-61
2022/10/20 06:14:52;;;;;;;19.55;10.75;;;5.90;99.90;;;;;;5106337;27;20043;-63
2022/10/20 06:17:19;;;;;;;15.23;9.90;;;6.00;99.90;;;;;;5122326;27;20055;-62
2022/10/20 06:19:46;;;;;;;17.27;11.05;;;6.00;99.90;;;;;;5113348;27;20047;-63
2022/10/20 06:22:13;;;;;;;19.25;10.93;;;6.00;99.90;;;;;;5134390;27;20055;-62
2022/10/20 06:24:40;;;;;;;15.27;10.55;;;6.00;99.90;;;;;;5114952;28;20052;-62
2022/10/20 06:27:08;;;;;;;17.83;11.13;;;6.10;99.90;;;;;;5117708;27;20047;-63
2022/10/20 06:29:36;;;;;;;17.70;11.23;;;6.10;99.90;;;;;;5136100;27;20096;-62
2022/10/20 06:32:03;;;;;;;18.77;10.90;;;6.10;99.90;;;;;;5123983;27;20051;-62
2022/10/20 06:34:29;;;;;;;16.35;11.10;;;6.10;99.90;;;;;;5114489;28;20066;-62
2022/10/20 06:36:56;;;;;;;18.80;11.77;;;6.20;99.90;;;;;;5134838;27;20491;-61
2022/10/20 06:39:24;;;;;;;16.25;10.40;;;6.20;99.90;;;;;;5118149;27;20107;-61
2022/10/20 06:41:53;;;;;;;19.52;11.15;;;6.30;99.90;;;;;;5117618;27;20111;-62
2022/10/20 06:44:22;;;;;;;13.10;9.40;;;6.30;99.90;;;;;;5131441;27;20051;-61
2022/10/20 06:46:52;;;;;;;13.77;9.88;;;6.40;99.90;;;;;;5097405;28;20499;-62
2022/10/20 06:49:19;;;;;;;15.52;9.82;;;6.40;99.90;;;;;;5115088;27;20134;-62
2022/10/20 06:51:46;;;;;;;16.67;10.00;;;6.50;99.90;;;;;;5129603;27;20051;-63
2022/10/20 06:54:12;;;;;;;18.48;10.23;;;6.60;99.90;;;;;;5135836;27;20519;-62
2022/10/20 06:56:40;;;;;;;19.75;9.85;;;6.60;99.90;;;;;;5134648;27;20414;-63
2022/10/20 06:59:07;;;;;;;19.83;11.13;;;6.60;99.90;;;;;;5117246;27;20051;-62
2022/10/20 07:01:35;;;;;;;20.20;9.88;;;6.70;99.90;;;;;;5135433;27;20490;-62
2022/10/20 07:04:05;;;;;;;14.43;10.93;;;6.80;99.90;;;;;;5112623;28;20064;-64
2022/10/20 07:06:34;;;;;;;13.57;9.27;;;6.80;99.90;;;;;;5115111;27;20554;-62
2022/10/20 07:09:02;;;;;;;14.15;9.88;;;6.90;99.90;;;;;;5130676;27;20051;-62
2022/10/20 07:11:31;;;;;;;15.70;9.65;;;7.00;99.90;;;;;;5135425;27;20050;-62
2022/10/20 07:13:58;;;;;;;12.75;9.82;;;7.00;99.90;;;;;;5117211;27;20043;-62
2022/10/20 07:16:27;;;;;;;12.90;8.55;;;7.10;99.90;;;;;;5135040;27;20111;-62
2022/10/20 07:18:54;;;;;;;16.65;10.18;;;7.30;99.90;;;;;;5134890;27;20047;-62
2022/10/20 07:21:25;;;;;;;15.93;9.80;;;7.40;99.90;;;;;;5135530;27;20448;-62
2022/10/20 07:23:54;;;;;;;14.23;9.75;;;7.50;99.90;;;;;;5098802;28;20066;-62
2022/10/20 07:26:24;;;;;;;16.05;10.27;;;7.60;99.90;;;;;;5114008;28;20152;-62
2022/10/20 07:28:52;;;;;;;15.13;9.32;;;7.70;99.90;;;;;;5096386;28;20047;-62
2022/10/20 07:31:21;;;;;;;17.25;10.25;;;7.70;99.90;;;;;;5096349;28;20055;-62
2022/10/20 07:33:48;;;;;;;15.70;10.13;;;7.60;99.90;;;;;;5114169;28;20445;-61
2022/10/20 07:36:17;;;;;;;13.02;9.38;;;7.50;99.90;;;;;;5096139;28;20555;-62
2022/10/20 07:38:45;;;;;;;13.43;10.02;;;7.50;99.90;;;;;;5113582;28;20043;-62
2022/10/20 07:41:12;;;;;;;15.63;10.48;;;7.50;99.90;;;;;;5096257;28;20056;-61
2022/10/20 07:43:39;;;;;;;14.95;9.88;;;7.50;99.90;;;;;;5095852;28;20058;-62
2022/10/20 07:46:07;;;;;;;12.98;8.75;;;7.40;99.90;;;;;;5113531;28;20055;-62
2022/10/20 07:48:34;;;;;;;15.43;9.85;;;7.50;99.90;;;;;;5096018;28;20048;-62
2022/10/20 07:51:14;;;;;;;16.50;9.20;;;7.50;99.90;;;;;;5114059;28;20051;-61
2022/10/20 07:53:42;;;;;;;16.50;9.33;;;7.60;99.90;;;;;;5095633;28;20055;-62
2022/10/20 07:56:10;;;;;;;16.70;8.93;;;7.60;99.90;;;;;;5113909;28;20043;-61
2022/10/20 07:58:37;;;;;;;14.60;9.43;;;7.60;99.90;;;;;;5113680;28;20051;-63
2022/10/20 08:01:05;;;;;;;15.35;8.98;;;7.70;99.90;;;;;;5095186;28;20055;-62
2022/10/20 08:03:32;;;;;;;14.93;8.93;;;7.70;99.90;;;;;;5095921;28;20165;-61
2022/10/20 08:05:59;;;;;;;16.60;10.30;;;7.80;99.90;;;;;;5113616;28;20052;-61
2022/10/20 08:08:26;;;;;;;14.38;9.48;;;7.90;99.90;;;;;;5113159;28;20043;-62
2022/10/20 08:10:52;;;;;;;11.50;8.70;;;7.90;99.90;;;;;;5095546;28;20125;-63
2022/10/20 08:13:21;;;;;;;13.52;9.35;;;8.10;99.90;;;;;;5113741;28;20043;-62
2022/10/20 08:15:48;;;;;;;15.90;9.07;;;8.20;99.90;;;;;;5125223;27;20046;-63
2022/10/20 08:18:14;;;;;;;13.20;8.60;;;8.30;99.90;;;;;;5110302;28;20036;-62
2022/10/20 08:20:41;;;;;;;12.15;8.45;;;8.40;99.90;;;;;;5100469;28;20097;-62
2022/10/20 08:23:08;;;;;;;12.32;8.07;;;8.60;99.90;;;;;;5110939;28;20055;-61
2022/10/20 08:25:35;;;;;;;11.32;8.38;;;8.70;99.90;;;;;;5113359;28;20059;-62
2022/10/20 08:28:02;;;;;;;13.43;8.88;;;8.80;99.90;;;;;;5093152;28;20044;-62
2022/10/20 08:30:30;;;;;;;15.10;9.23;;;8.90;99.90;;;;;;5122698;27;20055;-62
2022/10/20 08:32:57;;;;;;;12.15;8.98;;;9.00;99.90;;;;;;5133578;27;20078;-63
2022/10/20 08:35:25;;;;;;;13.02;8.35;;;9.20;99.90;;;;;;5113361;27;20047;-62
2022/10/20 08:37:52;;;;;;;10.82;8.50;;;9.20;99.90;;;;;;5133856;27;20050;-62
2022/10/20 08:40:22;;;;;;;12.43;8.55;;;9.50;99.90;;;;;;5132634;27;20414;-63
2022/10/20 08:42:49;;;;;;;;;;;9.80;99.90;;;;;;5115136;27;20051;-62
2022/10/20 08:45:18;;;;;;;12.48;7.68;;;10.10;99.90;;;;;;5133941;27;20308;-62
2022/10/20 08:47:49;;;;;;;11.02;8.05;;;10.10;99.90;;;;;;5133049;27;20399;-62
2022/10/20 08:50:20;;;;;;;15.02;8.05;;;10.10;99.90;;;;;;5114773;28;20490;-62
2022/10/20 08:52:51;;;;;;;12.02;7.80;;;10.10;99.90;;;;;;5115494;27;20139;-62
2022/10/20 08:55:20;;;;;;;;;;;10.30;99.90;;;;;;5133908;27;20047;-63
2022/10/20 08:57:49;;;;;;;12.70;7.70;;;10.40;99.90;;;;;;5114534;28;19924;-62
2022/10/20 09:00:18;;;;;;;10.52;7.53;;;10.70;99.90;;;;;;5111485;28;20130;-63
2022/10/20 09:02:48;;;;;;;10.57;7.85;;;10.90;99.90;;;;;;5121477;28;20043;-63
2022/10/20 09:05:19;;;;;;;10.52;7.50;;;11.20;99.90;;;;;;5096306;28;20047;-62
2022/10/20 09:07:47;;;;;;;11.82;6.95;;;11.50;99.90;;;;;;5094337;28;20052;-61
2022/10/20 09:10:25;;;;;;;11.35;6.70;;;12.00;99.90;;;;;;5115718;28;20079;-63
2022/10/20 09:12:52;;;;;;;9.93;7.18;;;12.60;99.90;;;;;;5113035;28;20039;-61
2022/10/20 09:15:21;;;;;;;10.32;6.95;;;13.00;99.90;;;;;;5122128;28;20055;-63
2022/10/20 09:17:51;;;;;;;8.55;6.50;;;13.60;99.90;;;;;;5113939;28;20486;-61
2022/10/20 09:20:24;;;;;;;11.30;7.20;;;14.10;99.90;;;;;;5133202;28;20096;-62
2022/10/20 09:22:51;;;;;;;11.05;6.65;;;14.80;99.90;;;;;;5124170;28;20456;-62
2022/10/20 09:25:22;;;;;;;9.18;6.55;;;15.10;99.90;;;;;;5112330;28;20100;-62
2022/10/20 09:27:50;;;;;;;10.52;5.90;;;15.20;99.90;;;;;;5112837;28;20123;-62
2022/10/20 09:30:19;;;;;;;8.50;6.07;;;15.40;99.90;;;;;;5094468;28;20048;-61
2022/10/20 09:32:47;;;;;;;8.10;6.25;;;15.30;99.90;;;;;;5130516;28;20050;-62
2022/10/20 09:35:29;;;;;;;13.27;7.13;;;15.20;99.90;;;;;;5114705;28;20097;-62
2022/10/20 09:38:03;;;;;;;10.02;6.35;;;15.10;99.90;;;;;;5110874;28;20048;-62
2022/10/20 09:40:31;;;;;;;8.68;6.45;;;14.60;99.90;;;;;;5093947;28;20580;-62
2022/10/20 09:43:02;;;;;;;7.63;6.72;;;14.40;99.90;;;;;;5093925;28;20056;-62
2022/10/20 09:45:30;;;;;;;10.10;5.80;;;14.00;99.90;;;;;;5112343;28;20054;-61
2022/10/20 09:48:05;;;;;;;6.70;5.47;;;13.60;99.90;;;;;;5116563;28;20044;-62
2022/10/20 09:50:36;;;;;;;7.57;5.78;;;13.40;99.90;;;;;;5115179;28;20052;-62
2022/10/20 09:53:07;;;;;;;7.63;5.75;;;13.30;99.90;;;;;;5130011;27;20511;-63
2022/10/20 09:55:35;;;;;;;;;;;13.40;99.90;;;;;;5118850;27;20058;-62
2022/10/20 09:58:04;;;;;;;7.90;5.50;;;13.40;99.90;;;;;;5118447;27;19919;-62
2022/10/20 10:00:33;;;;;;;8.52;5.82;;;13.10;99.90;;;;;;5108676;28;20387;-61
2022/10/20 10:03:18;;;;;;;8.15;5.88;;;12.90;99.90;;;;;;5116414;28;20048;-62
2022/10/20 10:05:49;;;;;;;11.27;5.95;;;12.80;99.90;;;;;;5097767;28;20047;-63
2022/10/20 10:08:16;;;;;;;11.65;5.53;;;12.80;99.90;;;;;;5115889;28;20040;-63
2022/10/20 10:10:45;;;;;;;7.95;5.22;;;12.90;99.90;;;;;;5116157;28;20073;-63
2022/10/20 10:13:26;;;;;;;7.82;5.60;;;13.00;99.90;;;;;;5115959;28;20052;-62
2022/10/20 10:16:06;;;;;;;8.85;6.13;;;12.80;99.90;;;;;;5115825;28;20093;-62
2022/10/20 10:18:34;;;;;;;7.78;5.78;;;13.00;99.90;;;;;;5097446;27;20051;-62
2022/10/20 10:21:05;;;;;;;8.32;5.90;;;13.20;99.90;;;;;;5115599;28;20056;-62
2022/10/20 10:23:35;;;;;;;10.77;6.13;;;13.30;99.90;;;;;;5115956;28;20055;-63
2022/10/20 10:26:03;;;;;;;8.68;5.93;;;13.50;99.90;;;;;;5103072;27;20055;-62
2022/10/20 10:28:38;;;;;;;8.50;6.03;;;13.70;99.90;;;;;;5100108;27;20043;-62
2022/10/20 10:31:09;;;;;;;6.07;5.15;;;14.20;99.90;;;;;;5096341;28;20047;-63
2022/10/20 10:33:36;;;;;;;7.43;5.40;;;14.60;99.90;;;;;;5135023;27;20047;-61
2022/10/20 10:36:10;;;;;;;7.55;5.03;;;14.70;99.90;;;;;;5095658;28;20067;-62
2022/10/20 10:38:37;;;;;;;9.75;5.72;;;14.60;99.90;;;;;;5095238;27;20052;-62
2022/10/20 10:41:16;;;;;;;8.50;5.78;;;14.60;99.90;;;;;;5113171;28;20052;-63
2022/10/20 10:43:52;;;;;;;7.78;6.07;;;14.60;99.90;;;;;;5113168;27;20070;-62
2022/10/20 10:46:21;;;;;;;6.90;5.15;;;15.20;99.90;;;;;;5126834;27;20051;-61
2022/10/20 10:49:07;;;;;;;7.90;5.00;;;15.80;99.90;;;;;;5101225;28;20454;-63
2022/10/20 10:51:48;;;;;;;6.95;4.95;;;16.30;99.90;;;;;;5113829;28;20062;-63
2022/10/20 10:54:29;;;;;;;6.75;4.63;;;16.50;99.90;;;;;;5112891;28;20047;-63
2022/10/20 10:57:02;;;;;;;11.27;4.90;;;16.30;99.90;;;;;;5113476;28;20514;-61
2022/10/20 10:59:34;;;;;;;7.47;5.10;;;16.20;99.90;;;;;;5113601;28;20054;-62
2022/10/20 11:02:33;;;;;;;9.07;5.38;;;16.30;99.90;;;;;;5112865;28;20123;-61
2022/10/20 11:05:23;;;;;;;8.93;5.07;;;16.40;99.90;;;;;;5095643;27;20052;-63
2022/10/20 11:08:03;;;;;;;7.30;5.30;;;16.60;99.90;;;;;;5112874;28;20043;-63
2022/10/20 11:10:40;;;;;;;6.75;5.00;;;16.70;99.90;;;;;;5112963;28;20122;-63
2022/10/20 11:13:22;;;;;;;6.75;5.38;;;17.00;99.90;;;;;;5094175;28;20096;-63
2022/10/20 11:16:00;;;;;;;9.02;5.30;;;16.80;99.90;;;;;;5094133;28;20495;-63
2022/10/20 11:19:07;;;;;;;8.80;5.00;;;16.40;99.90;;;;;;5094288;28;20445;-63
2022/10/20 11:21:40;;;;;;;8.48;5.30;;;16.00;99.90;;;;;;5025396;28;20427;-62
2022/10/20 11:24:28;;;;;;;12.30;5.40;;;15.80;99.90;;;;;;5030216;28;20049;-62
2022/10/20 11:27:02;;;;;;;8.52;5.32;;;15.80;99.90;;;;;;5080329;27;20051;-62
2022/10/20 11:29:33;;;;;;;7.85;5.38;;;16.10;99.90;;;;;;5114958;27;20051;-62
2022/10/20 11:32:08;;;;;;;6.03;5.30;;;16.10;99.90;;;;;;5093812;28;20047;-63
2022/10/20 11:34:39;;;;;;;7.80;5.15;;;16.00;99.90;;;;;;5104320;27;20070;-61
2022/10/20 11:37:13;;;;;;;8.70;5.70;;;15.90;99.90;;;;;;5095159;28;20120;-62
2022/10/20 11:39:45;;;;;;;6.93;5.60;;;16.00;99.90;;;;;;5095409;28;20040;-62
2022/10/20 11:42:23;;;;;;;13.65;5.47;;;15.90;99.90;;;;;;5115986;27;20054;-62
2022/10/20 11:44:52;;;;;;;7.28;5.65;;;15.60;99.90;;;;;;5134669;27;20054;-62
2022/10/20 11:47:26;;;;;;;8.98;5.75;;;15.20;99.90;;;;;;5116563;27;20051;-63
2022/10/20 11:49:53;;;;;;;10.70;5.43;;;15.00;99.90;;;;;;5116228;27;20046;-62
2022/10/20 11:52:41;;;;;;;9.55;5.45;;;15.00;99.90;;;;;;5115355;27;20096;-62
2022/10/20 11:55:39;;;;;;;7.50;5.40;;;14.80;99.90;;;;;;5134823;27;20115;-62
2022/10/20 11:58:22;;;;;;;7.90;5.35;;;14.80;99.90;;;;;;5106525;28;20506;-62
2022/10/20 12:01:04;;;;;;;8.15;6.13;;;14.60;99.90;;;;;;5113832;28;20055;-62
2022/10/20 12:04:05;;;;;;;8.48;6.03;;;14.50;99.90;;;;;;5113880;28;20108;-63
2022/10/20 12:06:57;;;;;;;10.90;5.68;;;14.30;99.90;;;;;;5094714;28;20096;-63
2022/10/20 12:09:48;;;;;;;8.65;5.50;;;14.20;99.90;;;;;;5113014;28;20051;-63
2022/10/20 12:12:19;;;;;;;;;;;14.20;99.90;;;;;;5096091;28;20552;-62
2022/10/20 12:14:54;;;;;;;8.02;5.68;;;14.00;99.90;;;;;;5095153;28;19923;-63
2022/10/20 12:17:30;;;;;;;8.55;5.05;;;13.90;99.90;;;;;;5095385;28;20108;-62
2022/10/20 12:20:50;;;;;;;7.88;6.05;;;13.80;99.90;;;;;;5095631;28;20050;-62
2022/10/20 12:24:01;;;;;;;10.00;6.03;;;13.70;99.90;;;;;;5059695;28;20048;-62
2022/10/20 12:27:06;;;;;;;7.97;6.03;;;13.60;99.90;;;;;;5070356;28;20048;-62
2022/10/20 12:30:01;;;;;;;11.07;6.32;;;13.60;99.90;;;;;;5071176;28;20056;-62
2022/10/20 12:32:53;;;;;;;8.23;5.80;;;13.50;99.90;;;;;;5095122;28;20060;-62
2022/10/20 12:35:46;;;;;;;9.35;6.00;;;13.40;99.90;;;;;;5078132;28;20059;-62
2022/10/20 12:38:17;;;;;;;9.57;6.13;;;13.40;99.90;;;;;;5093848;28;20116;-62
2022/10/20 12:40:49;;;;;;;9.05;6.05;;;13.40;99.90;;;;;;5109987;28;20431;-61
2022/10/20 12:43:31;;;;;;;11.30;6.35;;;13.40;99.90;;;;;;5094432;28;20109;-62
2022/10/20 12:46:07;;;;;;;10.15;6.20;;;13.30;99.90;;;;;;5094163;28;20191;-62
2022/10/20 12:48:40;;;;;;;11.23;6.53;;;13.40;99.90;;;;;;5112570;28;20047;-63
2022/10/20 12:51:15;;;;;;;8.52;6.25;;;13.20;99.90;;;;;;5113329;28;20467;-62
2022/10/20 12:53:42;;;;;;;9.52;6.47;;;13.20;99.90;;;;;;5111774;28;20051;-62
2022/10/20 12:56:13;;;;;;;9.25;6.43;;;13.10;99.90;;;;;;5111580;28;20055;-62
2022/10/20 12:59:24;;;;;;;12.73;7.18;;;13.00;99.90;;;;;;5112950;28;20155;-61
2022/10/20 13:02:40;;;;;;;8.95;6.47;;;13.00;99.90;;;;;;5091882;28;20048;-62
2022/10/20 13:05:43;;;;;;;14.57;7.85;;;12.80;99.90;;;;;;5113167;28;20047;-63
2022/10/20 13:08:25;;;;;;;11.60;7.35;;;12.70;99.90;;;;;;5095441;28;20109;-62
2022/10/20 13:10:53;;;;;;;11.30;6.88;;;12.60;99.90;;;;;;5094334;28;20506;-62